createdAt,value
2023-03-28T00:01:04.584Z,3.42
2023-03-28T00:03:35.870Z,3.45
2023-03-28T00:06:05.607Z,3.45
2023-03-28T00:08:32.622Z,3.42
2023-03-28T00:11:12.853Z,3.31
2023-03-28T00:13:39.548Z,3.24
2023-03-28T00:16:09.101Z,3.18
2023-03-28T00:18:39.207Z,3.09
2023-03-28T00:21:19.745Z,3.00
2023-03-28T00:23:46.552Z,2.94
2023-03-28T00:26:13.506Z,2.88
2023-03-28T00:28:40.108Z,2.81
2023-03-28T00:31:07.965Z,2.78
2023-03-28T00:33:34.865Z,2.79
2023-03-28T00:36:01.865Z,2.82
2023-03-28T00:38:28.971Z,2.86
2023-03-28T00:40:57.751Z,2.87
2023-03-28T00:43:41.605Z,2.79
2023-03-28T00:46:15.115Z,2.72
2023-03-28T00:48:49.447Z,2.64
2023-03-28T00:51:19.413Z,2.61
2023-03-28T00:53:46.549Z,2.58
2023-03-28T00:56:16.605Z,2.56
2023-03-28T00:58:44.910Z,2.55
2023-03-28T01:01:15.929Z,2.50
2023-03-28T01:03:46.520Z,2.44
2023-03-28T01:06:15.341Z,2.42
2023-03-28T01:08:46.378Z,2.40
2023-03-28T01:11:14.647Z,2.39
2023-03-28T01:13:48.432Z,2.35
2023-03-28T01:16:16.007Z,2.32
2023-03-28T01:18:51.562Z,2.29
2023-03-28T01:21:53.895Z,2.23
2023-03-28T01:24:33.260Z,2.15
2023-03-28T01:27:07.177Z,2.13
2023-03-28T01:29:49.086Z,2.09
2023-03-28T01:32:28.869Z,2.07
2023-03-28T01:35:23.154Z,2.03
2023-03-28T01:38:08.306Z,1.99
2023-03-28T01:40:49.044Z,1.99
2023-03-28T01:43:31.413Z,1.98
2023-03-28T01:46:12.959Z,1.93
2023-03-28T01:48:48.684Z,1.89
2023-03-28T01:51:18.393Z,1.87
2023-03-28T01:53:59.919Z,1.87
2023-03-28T01:56:47.793Z,1.84
2023-03-28T01:59:26.364Z,1.83
2023-03-28T02:02:05.859Z,1.78
2023-03-28T02:04:36.355Z,1.76
2023-03-28T02:07:04.463Z,1.73
2023-03-28T02:09:33.541Z,1.71
2023-03-28T02:12:08.303Z,1.68
2023-03-28T02:14:41.387Z,1.63
2023-03-28T02:17:15.780Z,1.60
2023-03-28T02:19:59.525Z,1.54
2023-03-28T02:22:37.271Z,1.54
2023-03-28T02:25:04.427Z,1.50
2023-03-28T02:27:32.926Z,1.48
2023-03-28T02:30:00.328Z,1.43
2023-03-28T02:32:26.952Z,1.40
2023-03-28T02:34:55.671Z,1.39
2023-03-28T02:37:36.323Z,1.38
2023-03-28T02:40:21.705Z,1.36
2023-03-28T02:43:05.136Z,1.33
2023-03-28T02:45:40.934Z,1.31
2023-03-28T02:48:25.725Z,1.29
2023-03-28T02:51:19.766Z,1.26
2023-03-28T02:54:08.589Z,1.24
2023-03-28T02:57:05.291Z,1.20
2023-03-28T02:59:41.540Z,1.18
2023-03-28T03:02:08.764Z,1.15
2023-03-28T03:04:35.398Z,1.12
2023-03-28T03:07:02.587Z,1.10
2023-03-28T03:09:29.587Z,1.09
2023-03-28T03:11:56.167Z,1.10
2023-03-28T03:14:23.173Z,1.11
2023-03-28T03:16:51.715Z,1.08
2023-03-28T03:19:19.079Z,1.07
2023-03-28T03:21:46.615Z,1.06
2023-03-28T03:24:14.464Z,1.05
2023-03-28T03:26:41.137Z,1.05
2023-03-28T03:29:07.782Z,1.06
2023-03-28T03:31:34.713Z,1.05
2023-03-28T03:34:02.072Z,1.07
2023-03-28T03:36:30.517Z,1.06
2023-03-28T03:38:57.323Z,1.05
2023-03-28T03:41:23.943Z,1.05
2023-03-28T03:43:50.548Z,1.02
2023-03-28T03:46:17.697Z,1.00
2023-03-28T03:48:50.179Z,0.99
2023-03-28T03:51:17.432Z,0.97
2023-03-28T03:53:45.046Z,0.94
2023-03-28T03:56:11.606Z,0.90
2023-03-28T03:58:38.161Z,0.91
2023-03-28T04:01:04.850Z,0.90
2023-03-28T04:03:33.884Z,0.89
2023-03-28T04:06:02.140Z,0.89
2023-03-28T04:08:28.971Z,0.90
2023-03-28T04:10:55.639Z,0.90
2023-03-28T04:13:22.364Z,0.89
2023-03-28T04:15:48.951Z,0.88
2023-03-28T04:18:17.799Z,0.87
2023-03-28T04:20:49.584Z,0.88
2023-03-28T04:23:18.534Z,0.88
2023-03-28T04:25:45.068Z,0.88
2023-03-28T04:28:11.615Z,0.87
2023-03-28T04:30:38.456Z,0.86
2023-03-28T04:33:05.128Z,0.86
2023-03-28T04:35:35.446Z,0.85
2023-03-28T04:38:02.753Z,0.84
2023-03-28T04:40:29.428Z,0.82
2023-03-28T04:42:56.072Z,0.83
2023-03-28T04:45:23.533Z,0.82
2023-03-28T04:47:50.110Z,0.82
2023-03-28T04:50:16.854Z,0.82
2023-03-28T04:52:43.525Z,0.82
2023-03-28T04:55:10.394Z,0.80
2023-03-28T04:57:38.230Z,0.78
2023-03-28T05:00:17.242Z,0.80
2023-03-28T05:02:44.015Z,1.70
2023-03-28T05:05:10.660Z,2.73
2023-03-28T05:07:37.260Z,3.47
2023-03-28T05:10:04.362Z,3.60
2023-03-28T05:12:30.910Z,3.37
2023-03-28T05:14:57.571Z,3.22
2023-03-28T05:17:24.859Z,3.45
2023-03-28T05:19:51.520Z,3.31
2023-03-28T05:22:18.064Z,2.96
2023-03-28T05:24:44.621Z,2.59
2023-03-28T05:27:11.263Z,2.34
2023-03-28T05:29:37.791Z,2.30
2023-03-28T05:32:04.678Z,2.33
2023-03-28T05:34:31.440Z,2.35
2023-03-28T05:36:58.028Z,2.49
2023-03-28T05:39:24.587Z,2.65
2023-03-28T05:41:51.109Z,2.48
2023-03-28T05:44:18.776Z,2.39
2023-03-28T05:46:45.546Z,2.27
2023-03-28T05:49:12.162Z,2.06
2023-03-28T05:51:38.682Z,1.85
2023-03-28T05:54:05.488Z,1.67
2023-03-28T05:56:35.370Z,1.54
2023-03-28T05:59:02.183Z,1.42
2023-03-28T06:01:29.292Z,1.36
2023-03-28T06:03:56.101Z,2.05
2023-03-28T06:06:22.825Z,2.51
2023-03-28T06:08:49.403Z,2.41
2023-03-28T06:11:16.132Z,2.19
2023-03-28T06:13:42.690Z,1.97
2023-03-28T06:16:09.553Z,1.87
2023-03-28T06:18:36.144Z,1.82
2023-03-28T06:21:02.885Z,1.80
2023-03-28T06:23:29.486Z,1.79
2023-03-28T06:25:56.279Z,1.81
2023-03-28T06:28:22.892Z,1.85
2023-03-28T06:30:50.365Z,1.89
2023-03-28T06:33:17.116Z,1.93
2023-03-28T06:35:43.813Z,1.99
2023-03-28T06:38:10.819Z,2.02
2023-03-28T06:40:37.630Z,2.07
2023-03-28T06:43:04.278Z,2.10
2023-03-28T06:45:30.808Z,2.13
2023-03-28T06:47:57.347Z,2.15
2023-03-28T06:50:23.991Z,2.16
2023-03-28T06:52:50.554Z,2.23
2023-03-28T06:55:17.182Z,2.26
2023-03-28T06:57:43.784Z,2.35
2023-03-28T07:00:11.439Z,2.45
2023-03-28T07:02:38.011Z,2.53
2023-03-28T07:05:04.942Z,2.60
2023-03-28T07:07:31.760Z,2.71
2023-03-28T07:09:58.258Z,2.81
2023-03-28T07:12:24.812Z,2.87
2023-03-28T07:14:51.476Z,2.96
2023-03-28T07:17:18.025Z,3.02
2023-03-28T07:19:46.088Z,3.08
2023-03-28T07:22:12.642Z,3.13
2023-03-28T07:24:39.245Z,3.19
2023-03-28T07:29:35.441Z,3.33
2023-03-28T07:32:02.088Z,3.42
2023-03-28T07:34:28.649Z,3.53
2023-03-28T07:36:56.071Z,3.67
2023-03-28T07:39:22.781Z,3.79
2023-03-28T07:41:49.337Z,3.92
2023-03-28T07:44:15.963Z,4.03
2023-03-28T07:46:43.292Z,4.14
2023-03-28T07:49:10.712Z,4.24
2023-03-28T07:51:37.504Z,4.36
2023-03-28T07:54:05.077Z,4.49
2023-03-28T07:56:31.758Z,4.63
2023-03-28T07:58:58.433Z,4.77
2023-03-28T08:01:25.067Z,4.96
2023-03-28T08:03:51.699Z,5.11
2023-03-28T08:06:31.775Z,5.19
2023-03-28T08:08:59.171Z,5.29
2023-03-28T08:11:27.191Z,5.42
2023-03-28T08:13:53.984Z,5.57
2023-03-28T08:16:20.751Z,5.69
2023-03-28T08:18:54.401Z,5.72
2023-03-28T08:21:31.042Z,5.76
2023-03-28T08:23:58.701Z,5.83
2023-03-28T08:26:25.941Z,5.90
2023-03-28T08:28:54.840Z,6.02
2023-03-28T08:31:26.862Z,6.19
2023-03-28T08:33:55.082Z,6.41
2023-03-28T08:36:23.790Z,6.63
2023-03-28T08:38:50.976Z,6.84
2023-03-28T08:41:31.448Z,6.97
2023-03-28T08:44:36.515Z,6.98
2023-03-28T08:47:20.074Z,7.12
2023-03-28T08:49:53.392Z,7.17
2023-03-28T08:52:21.454Z,7.19
2023-03-28T08:54:55.397Z,7.23
2023-03-28T08:57:27.162Z,7.21
2023-03-28T09:00:15.489Z,7.29
2023-03-28T09:02:43.570Z,7.42
2023-03-28T09:05:23.140Z,7.48
2023-03-28T09:08:09.149Z,7.43
2023-03-28T09:11:16.308Z,7.41
2023-03-28T09:14:12.331Z,7.33
2023-03-28T09:17:09.572Z,7.36
2023-03-28T09:20:00.428Z,7.43
2023-03-28T09:22:47.018Z,7.43
2023-03-28T09:25:37.403Z,7.51
2023-03-28T09:28:30.937Z,7.63
2023-03-28T09:30:59.482Z,7.72
2023-03-28T09:33:33.384Z,7.80
2023-03-28T09:36:02.042Z,8.01
2023-03-28T09:38:38.182Z,8.20
2023-03-28T09:41:14.474Z,8.37
2023-03-28T09:43:48.723Z,8.41
2023-03-28T09:46:20.873Z,8.58
2023-03-28T09:48:48.334Z,8.71
2023-03-28T09:51:16.984Z,8.80
2023-03-28T09:53:44.276Z,8.84
2023-03-28T09:56:26.070Z,8.95
2023-03-28T09:59:05.052Z,9.02
2023-03-28T10:01:37.381Z,9.11
2023-03-28T10:04:13.347Z,9.12
2023-03-28T10:06:41.729Z,9.14
2023-03-28T10:09:16.815Z,9.25
2023-03-28T10:12:04.685Z,9.35
2023-03-28T10:14:42.608Z,9.52
2023-03-28T10:17:27.627Z,9.74
2023-03-28T10:20:01.521Z,9.91
2023-03-28T10:22:32.737Z,10.11
2023-03-28T10:25:00.178Z,10.14
2023-03-28T10:27:32.982Z,10.17
2023-03-28T10:30:12.369Z,10.27
2023-03-28T10:32:39.100Z,10.44
2023-03-28T10:35:20.651Z,10.56
2023-03-28T10:37:48.708Z,10.79
2023-03-28T10:40:19.039Z,10.93
2023-03-28T10:42:47.239Z,10.96
2023-03-28T10:45:21.640Z,10.69
2023-03-28T10:47:51.644Z,10.61
2023-03-28T10:50:43.854Z,10.67
2023-03-28T10:53:37.077Z,10.69
2023-03-28T10:56:33.821Z,10.67
2023-03-28T10:59:17.782Z,10.72
2023-03-28T11:02:12.161Z,10.88
2023-03-28T11:05:03.326Z,11.10
2023-03-28T11:07:44.874Z,11.28
2023-03-28T11:10:37.055Z,11.41
2023-03-28T11:13:23.912Z,11.54
2023-03-28T11:16:14.954Z,11.66
2023-03-28T11:18:58.721Z,11.65
2023-03-28T11:21:44.114Z,11.43
2023-03-28T11:24:19.768Z,11.32
2023-03-28T11:27:15.628Z,11.24
2023-03-28T11:30:11.262Z,11.36
2023-03-28T11:32:41.665Z,11.47
2023-03-28T11:35:31.808Z,11.65
2023-03-28T11:38:10.370Z,11.65
2023-03-28T11:40:39.600Z,11.73
2023-03-28T11:43:11.544Z,11.94
2023-03-28T11:45:52.243Z,12.04
2023-03-28T11:48:31.818Z,12.14
2023-03-28T11:51:16.566Z,12.20
2023-03-28T11:53:57.100Z,12.18
2023-03-28T11:57:11.694Z,12.13
2023-03-28T12:00:32.701Z,12.10
2023-03-28T12:03:07.543Z,12.11
2023-03-28T12:05:40.509Z,12.10
2023-03-28T12:08:27.328Z,12.23
2023-03-28T12:10:59.023Z,12.41
2023-03-28T12:13:31.819Z,12.51
2023-03-28T12:16:07.196Z,12.45
2023-03-28T12:18:43.961Z,12.40
2023-03-28T12:21:19.102Z,12.45
2023-03-28T12:24:16.695Z,12.48
2023-03-28T12:27:10.855Z,12.58
2023-03-28T12:29:56.637Z,12.70
2023-03-28T12:32:42.942Z,12.79
2023-03-28T12:35:21.464Z,12.86
2023-03-28T12:38:06.754Z,12.90
2023-03-28T12:41:11.909Z,13.07
2023-03-28T12:44:08.328Z,13.28
2023-03-28T12:46:46.151Z,13.39
2023-03-28T12:49:16.385Z,13.35
2023-03-28T12:51:46.854Z,13.30
2023-03-28T12:54:16.416Z,13.23
2023-03-28T12:56:47.544Z,13.24
2023-03-28T12:59:36.040Z,13.30
2023-03-28T13:02:29.247Z,13.37
2023-03-28T13:05:04.952Z,13.39
2023-03-28T13:08:02.726Z,13.43
2023-03-28T13:10:29.413Z,13.57
2023-03-28T13:13:23.687Z,13.68
2023-03-28T13:16:03.732Z,13.66
2023-03-28T13:18:34.807Z,13.55
2023-03-28T13:21:04.567Z,13.46
2023-03-28T13:23:39.450Z,13.50
2023-03-28T13:26:06.868Z,13.59
2023-03-28T13:28:41.239Z,13.63
2023-03-28T13:31:25.825Z,13.61
2023-03-28T13:34:01.001Z,13.63
2023-03-28T13:36:29.985Z,13.66
2023-03-28T13:39:08.482Z,13.79
2023-03-28T13:41:40.822Z,14.11
2023-03-28T13:44:21.858Z,14.41
2023-03-28T13:46:50.026Z,14.72
2023-03-28T13:49:40.841Z,14.82
2023-03-28T13:52:14.561Z,14.61
2023-03-28T13:54:41.174Z,14.47
2023-03-28T13:57:15.769Z,14.29
2023-03-28T13:59:54.104Z,14.21
2023-03-28T14:02:47.849Z,14.20
2023-03-28T14:05:24.858Z,14.25
2023-03-28T14:07:52.833Z,14.25
2023-03-28T14:10:29.487Z,14.24
2023-03-28T14:13:06.089Z,14.33
2023-03-28T14:15:36.344Z,14.43
2023-03-28T14:18:03.756Z,14.58
2023-03-28T14:20:33.412Z,14.92
2023-03-28T14:23:01.550Z,15.28
2023-03-28T14:25:28.815Z,15.58
2023-03-28T14:27:57.095Z,15.71
2023-03-28T14:30:23.755Z,15.50
2023-03-28T14:32:59.254Z,15.24
2023-03-28T14:35:34.402Z,14.96
2023-03-28T14:38:03.711Z,14.76
2023-03-28T14:40:37.503Z,14.57
2023-03-28T14:43:10.452Z,14.35
2023-03-28T14:45:41.183Z,14.14
2023-03-28T14:48:13.234Z,13.92
2023-03-28T14:50:40.646Z,13.70
2023-03-28T14:53:12.665Z,13.57
2023-03-28T14:55:39.498Z,13.35
2023-03-28T14:58:06.700Z,13.32
2023-03-28T15:00:37.689Z,13.17
2023-03-28T15:03:07.394Z,13.06
2023-03-28T15:05:35.149Z,12.96
2023-03-28T15:08:03.889Z,12.86
2023-03-28T15:10:31.052Z,12.80
2023-03-28T15:13:04.450Z,12.72
2023-03-28T15:15:37.136Z,12.63
2023-03-28T15:18:11.368Z,12.50
2023-03-28T15:20:39.289Z,12.45
2023-03-28T15:23:13.656Z,12.42
2023-03-28T15:25:43.666Z,12.37
2023-03-28T15:28:16.278Z,12.31
2023-03-28T15:30:45.300Z,12.28
2023-03-28T15:33:18.520Z,12.26
2023-03-28T15:35:45.862Z,12.26
2023-03-28T15:38:12.420Z,12.32
2023-03-28T15:40:44.549Z,12.40
2023-03-28T15:43:29.211Z,12.47
2023-03-28T15:46:01.717Z,12.52
2023-03-28T15:48:34.132Z,12.49
2023-03-28T15:51:04.982Z,12.45
2023-03-28T15:53:32.435Z,12.44
2023-03-28T15:56:08.812Z,12.45
2023-03-28T15:58:42.265Z,12.43
2023-03-28T16:01:20.285Z,12.39
2023-03-28T16:03:46.943Z,12.36
2023-03-28T16:06:30.984Z,12.31
2023-03-28T16:09:20.336Z,12.22
2023-03-28T16:11:58.473Z,12.21
2023-03-28T16:14:25.347Z,12.18
2023-03-28T16:16:56.750Z,12.19
2023-03-28T16:19:26.467Z,12.16
2023-03-28T16:21:53.873Z,12.12
2023-03-28T16:24:20.866Z,12.05
2023-03-28T16:26:47.928Z,11.98
2023-03-28T16:29:14.607Z,11.91
2023-03-28T16:31:42.929Z,11.86
2023-03-28T16:34:10.217Z,11.82
2023-03-28T16:36:38.005Z,11.74
2023-03-28T16:39:06.378Z,11.70
2023-03-28T16:41:32.909Z,11.63
2023-03-28T16:43:59.584Z,11.58
2023-03-28T16:46:26.203Z,11.57
2023-03-28T16:48:52.756Z,11.53
2023-03-28T16:51:19.327Z,11.51
2023-03-28T16:53:45.875Z,11.45
2023-03-28T16:56:12.592Z,11.41
2023-03-28T16:58:39.515Z,11.36
2023-03-28T17:01:11.058Z,11.30
2023-03-28T17:03:37.882Z,11.28
2023-03-28T17:06:06.836Z,11.26
2023-03-28T17:08:34.182Z,11.25
2023-03-28T17:11:01.240Z,11.24
2023-03-28T17:13:28.101Z,11.24
2023-03-28T17:15:56.362Z,11.22
2023-03-28T17:18:23.019Z,11.22
2023-03-28T17:21:07.279Z,11.19
2023-03-28T17:23:34.931Z,11.17
2023-03-28T17:26:02.080Z,11.17
2023-03-28T17:28:29.273Z,11.15
2023-03-28T17:30:56.636Z,11.13
2023-03-28T17:33:23.446Z,11.13
2023-03-28T17:35:50.355Z,11.11
2023-03-28T17:38:16.908Z,11.08
2023-03-28T17:40:49.685Z,11.05
2023-03-28T17:43:16.510Z,11.04
2023-03-28T17:45:43.524Z,11.05
2023-03-28T17:48:12.559Z,11.02
2023-03-28T17:50:39.340Z,10.96
2023-03-28T17:53:06.885Z,10.94
2023-03-28T17:55:34.050Z,10.91
2023-03-28T17:58:01.184Z,10.87
2023-03-28T18:00:30.224Z,10.87
2023-03-28T18:02:57.996Z,10.83
2023-03-28T18:05:24.579Z,10.79
2023-03-28T18:07:52.026Z,10.76
2023-03-28T18:10:18.779Z,10.77
2023-03-28T18:12:45.341Z,10.75
2023-03-28T18:15:11.880Z,10.71
2023-03-28T18:17:38.752Z,10.70
2023-03-28T18:20:06.069Z,10.69
2023-03-28T18:22:32.951Z,10.68
2023-03-28T18:24:59.563Z,10.67
2023-03-28T18:27:26.444Z,10.66
2023-03-28T18:29:53.198Z,10.64
2023-03-28T18:32:19.729Z,10.60
2023-03-28T18:34:46.643Z,10.58
2023-03-28T18:37:13.189Z,10.50
2023-03-28T18:39:41.741Z,10.45
2023-03-28T18:42:08.704Z,10.37
2023-03-28T18:44:37.140Z,10.35
2023-03-28T18:47:05.272Z,10.31
2023-03-28T18:49:32.179Z,10.25
2023-03-28T18:52:04.421Z,10.24
2023-03-28T18:54:34.828Z,10.23
2023-03-28T18:57:01.591Z,10.23
2023-03-28T18:59:28.289Z,10.21
2023-03-28T19:01:54.943Z,10.20
2023-03-28T19:04:23.490Z,10.19
2023-03-28T19:06:51.856Z,10.18
2023-03-28T19:09:18.635Z,10.15
2023-03-28T19:11:45.616Z,10.12
2023-03-28T19:14:12.272Z,10.14
2023-03-28T19:16:38.844Z,10.15
2023-03-28T19:19:05.481Z,10.16
2023-03-28T19:21:32.151Z,10.19
2023-03-28T19:23:58.672Z,10.21
2023-03-28T19:26:26.389Z,10.26
2023-03-28T19:28:53.590Z,10.26
2023-03-28T19:31:24.154Z,10.24
2023-03-28T19:33:51.660Z,10.21
2023-03-28T19:36:18.411Z,10.17
2023-03-28T19:38:45.029Z,10.15
2023-03-28T19:41:17.866Z,10.15
2023-03-28T19:43:45.119Z,10.15
2023-03-28T19:46:32.430Z,10.17
2023-03-28T19:49:02.307Z,10.17
2023-03-28T19:51:29.207Z,10.18
2023-03-28T19:53:55.940Z,10.16
2023-03-28T19:56:23.518Z,10.18
2023-03-28T19:58:52.013Z,10.15
2023-03-28T20:01:19.846Z,10.08
2023-03-28T20:03:48.486Z,10.05
2023-03-28T20:06:16.518Z,10.04
2023-03-28T20:08:43.371Z,10.00
2023-03-28T20:11:11.987Z,10.00
2023-03-28T20:13:39.443Z,10.00
2023-03-28T20:16:08.081Z,9.99
2023-03-28T20:18:36.301Z,9.98
2023-03-28T20:21:06.203Z,9.97
2023-03-28T20:23:33.751Z,9.89
2023-03-28T20:26:01.619Z,9.84
2023-03-28T20:28:33.878Z,9.86
2023-03-28T20:31:00.761Z,9.86
2023-03-28T20:33:27.575Z,9.87
2023-03-28T20:35:56.693Z,9.85
2023-03-28T20:38:24.692Z,9.83
2023-03-28T20:40:52.021Z,9.79
2023-03-28T20:43:24.122Z,9.81
2023-03-28T20:45:54.604Z,9.75
2023-03-28T20:48:34.235Z,9.81
2023-03-28T20:51:06.260Z,9.81
2023-03-28T20:53:33.542Z,9.83
2023-03-28T20:56:04.976Z,9.82
2023-03-28T20:58:33.137Z,9.82
2023-03-28T21:01:01.740Z,9.81
2023-03-28T21:03:47.817Z,9.77
2023-03-28T21:06:26.046Z,9.67
2023-03-28T21:08:55.106Z,9.55
2023-03-28T21:11:26.075Z,9.46
2023-03-28T21:13:52.779Z,9.40
2023-03-28T21:16:21.001Z,9.28
2023-03-28T21:18:48.560Z,9.24
2023-03-28T21:21:17.341Z,9.20
2023-03-28T21:23:45.122Z,9.17
2023-03-28T21:26:15.196Z,9.13
2023-03-28T21:28:42.077Z,9.13
2023-03-28T21:31:18.282Z,9.12
2023-03-28T21:33:45.802Z,9.14
2023-03-28T21:36:15.987Z,9.13
2023-03-28T21:38:44.482Z,9.11
2023-03-28T21:41:12.248Z,9.11
2023-03-28T21:43:39.340Z,9.10
2023-03-28T21:46:07.694Z,9.13
2023-03-28T21:48:35.217Z,9.13
2023-03-28T21:51:02.473Z,9.18
2023-03-28T21:53:32.686Z,9.22
2023-03-28T21:55:59.924Z,9.28
2023-03-28T21:58:29.661Z,9.32
2023-03-28T22:00:56.769Z,9.35
2023-03-28T22:03:23.985Z,9.36
2023-03-28T22:05:51.906Z,9.35
2023-03-28T22:08:19.110Z,9.33
2023-03-28T22:10:52.609Z,9.31
2023-03-28T22:13:20.192Z,9.33
2023-03-28T22:15:46.916Z,9.31
2023-03-28T22:18:13.824Z,9.31
2023-03-28T22:20:43.627Z,9.30
2023-03-28T22:23:10.712Z,9.30
2023-03-28T22:25:38.420Z,9.30
2023-03-28T22:28:10.049Z,9.30
2023-03-28T22:30:40.490Z,9.31
2023-03-28T22:33:09.872Z,9.31
2023-03-28T22:35:37.025Z,9.31
2023-03-28T22:38:04.087Z,9.30
2023-03-28T22:40:32.039Z,9.29
2023-03-28T22:42:58.769Z,9.32
2023-03-28T22:45:28.645Z,9.33
2023-03-28T22:47:58.300Z,9.32
2023-03-28T22:50:25.990Z,9.33
2023-03-28T22:52:53.108Z,9.31
2023-03-28T22:55:22.907Z,9.30
2023-03-28T22:57:51.605Z,9.28
2023-03-28T23:00:21.691Z,9.27
2023-03-28T23:02:49.123Z,9.27
2023-03-28T23:05:15.830Z,9.28
2023-03-28T23:07:42.916Z,9.28
2023-03-28T23:10:14.367Z,9.29
2023-03-28T23:12:42.747Z,9.30
2023-03-28T23:15:10.142Z,9.30
2023-03-28T23:17:37.265Z,9.33
2023-03-28T23:20:12.624Z,9.33
2023-03-28T23:22:40.475Z,9.34
2023-03-28T23:25:07.920Z,9.35
2023-03-28T23:27:34.636Z,9.36
2023-03-28T23:30:01.274Z,9.36
2023-03-28T23:32:27.815Z,9.34
2023-03-28T23:34:54.411Z,9.32
2023-03-28T23:37:25.988Z,9.32
2023-03-28T23:39:56.073Z,9.28
2023-03-28T23:42:23.911Z,9.29
2023-03-28T23:44:51.818Z,9.29
2023-03-28T23:47:20.578Z,9.27
2023-03-28T23:49:47.624Z,9.31
2023-03-28T23:52:14.351Z,9.32
2023-03-28T23:54:40.911Z,9.33
2023-03-28T23:57:08.024Z,9.33
2023-03-28T23:59:35.422Z,9.35
